createdAt,value
2022-12-29T00:00:15.117Z,10.77
2022-12-29T00:02:42.577Z,9.93
2022-12-29T00:05:09.702Z,9.90
2022-12-29T00:07:36.346Z,12.20
2022-12-29T00:10:03.528Z,9.57
2022-12-29T00:12:50.181Z,8.63
2022-12-29T00:15:35.885Z,7.00
2022-12-29T00:18:02.574Z,6.28
2022-12-29T00:20:47.457Z,6.47
2022-12-29T00:23:32.664Z,4.90
2022-12-29T00:26:17.994Z,4.22
2022-12-29T00:29:02.856Z,3.90
2022-12-29T00:31:47.768Z,4.05
2022-12-29T00:34:32.883Z,3.83
2022-12-29T00:36:59.435Z,3.83
2022-12-29T00:39:44.443Z,4.60
2022-12-29T00:42:39.943Z,3.92
2022-12-29T00:45:06.976Z,4.10
2022-12-29T00:47:33.730Z,3.97
2022-12-29T00:50:00.822Z,5.25
2022-12-29T00:52:27.369Z,5.60
2022-12-29T00:54:53.876Z,5.18
2022-12-29T00:57:20.410Z,5.60
2022-12-29T00:59:46.946Z,4.72
2022-12-29T01:02:13.514Z,5.10
2022-12-29T01:04:40.116Z,4.35
2022-12-29T01:07:06.697Z,4.05
2022-12-29T01:09:52.483Z,4.50
2022-12-29T01:12:39.123Z,3.90
2022-12-29T01:15:06.967Z,3.45
2022-12-29T01:17:33.851Z,2.97
2022-12-29T01:20:01.167Z,3.47
2022-12-29T01:22:28.109Z,3.50
2022-12-29T01:24:54.606Z,3.20
2022-12-29T01:27:21.160Z,3.05
2022-12-29T01:29:47.617Z,3.53
2022-12-29T01:32:14.165Z,4.00
2022-12-29T01:34:40.730Z,3.83
2022-12-29T01:37:07.289Z,3.33
2022-12-29T01:39:33.818Z,4.32
2022-12-29T01:42:01.147Z,3.40
2022-12-29T01:45:00.920Z,4.15
2022-12-29T01:47:30.458Z,4.25
2022-12-29T01:50:01.266Z,3.85
2022-12-29T01:52:30.993Z,3.80
2022-12-29T01:54:59.084Z,4.20
2022-12-29T01:57:30.806Z,4.57
2022-12-29T02:00:16.190Z,3.80
2022-12-29T02:02:50.377Z,3.53
2022-12-29T02:05:39.462Z,4.82
2022-12-29T02:08:06.512Z,4.18
2022-12-29T02:10:36.035Z,3.75
2022-12-29T02:13:03.035Z,4.10
2022-12-29T02:16:08.581Z,4.30
2022-12-29T02:19:21.434Z,3.85
2022-12-29T02:22:09.455Z,4.18
2022-12-29T02:24:58.906Z,4.03
2022-12-29T02:27:31.390Z,3.70
2022-12-29T02:30:19.049Z,4.75
2022-12-29T02:33:13.948Z,4.18
2022-12-29T02:36:00.385Z,4.68
2022-12-29T02:38:51.534Z,4.18
2022-12-29T02:41:29.980Z,4.45
2022-12-29T02:44:34.256Z,4.70
2022-12-29T02:47:12.343Z,4.63
2022-12-29T02:49:54.680Z,4.50
2022-12-29T02:52:32.073Z,4.15
2022-12-29T02:54:59.644Z,4.22
2022-12-29T02:57:26.605Z,4.40
2022-12-29T02:59:58.019Z,4.40
2022-12-29T03:02:24.564Z,5.35
2022-12-29T03:05:09.598Z,5.13
2022-12-29T03:08:18.552Z,4.53
2022-12-29T03:11:04.500Z,4.57
2022-12-29T03:14:11.707Z,4.50
2022-12-29T03:16:51.758Z,4.35
2022-12-29T03:22:15.976Z,4.18
2022-12-29T03:24:47.768Z,8.55
2022-12-29T03:27:19.931Z,8.77
2022-12-29T03:29:54.248Z,7.63
2022-12-29T03:32:24.790Z,6.20
2022-12-29T03:34:51.863Z,6.15
2022-12-29T03:37:27.104Z,6.05
2022-12-29T03:39:53.766Z,5.68
2022-12-29T03:42:25.193Z,5.15
2022-12-29T03:44:56.188Z,5.55
2022-12-29T03:47:23.766Z,5.15
2022-12-29T03:49:51.359Z,4.90
2022-12-29T03:52:18.173Z,5.38
2022-12-29T03:54:44.839Z,5.00
2022-12-29T03:57:12.452Z,6.03
2022-12-29T03:59:39.026Z,5.95
2022-12-29T04:02:05.645Z,5.00
2022-12-29T04:04:32.179Z,4.72
2022-12-29T04:06:59.196Z,4.40
2022-12-29T04:09:25.678Z,4.57
2022-12-29T04:11:52.176Z,4.78
2022-12-29T04:51:01.480Z,4.68
2022-12-29T04:53:28.007Z,5.05
2022-12-29T04:55:54.660Z,6.43
2022-12-29T05:22:50.054Z,4.10
2022-12-29T09:57:45.148Z,15.80
2022-12-29T10:00:18.969Z,14.75
2022-12-29T10:03:00.324Z,8.80
2022-12-29T10:05:48.344Z,13.82
2022-12-29T10:08:29.924Z,11.95
2022-12-29T10:11:06.855Z,15.40
2022-12-29T10:13:51.728Z,13.52
2022-12-29T10:16:26.375Z,17.40
2022-12-29T10:19:20.615Z,14.93
2022-12-29T10:21:58.897Z,10.13
2022-12-29T10:24:27.148Z,9.75
2022-12-29T10:26:56.635Z,11.15
2022-12-29T10:29:28.677Z,14.70
2022-12-29T10:32:00.182Z,13.15
2022-12-29T10:34:32.618Z,4.32
2022-12-29T10:37:03.917Z,3.42
2022-12-29T10:39:37.941Z,3.38
2022-12-29T10:42:10.140Z,1.73
2022-12-29T10:44:36.751Z,2.85
2022-12-29T11:09:47.431Z,1.73
2022-12-29T11:24:54.223Z,1.77
2022-12-29T11:27:23.989Z,1.55
2022-12-29T11:29:52.318Z,1.20
2022-12-29T11:32:28.472Z,1.15
2022-12-29T11:34:58.578Z,1.20
2022-12-29T11:37:25.038Z,1.33
2022-12-29T11:40:09.200Z,0.90
2022-12-29T11:42:48.356Z,1.27
2022-12-29T12:53:41.239Z,1.23
2022-12-29T12:56:36.970Z,1.08
2022-12-29T12:59:14.862Z,1.00
2022-12-29T13:02:10.487Z,1.08
2022-12-29T13:04:57.565Z,1.48
2022-12-29T13:07:33.937Z,1.10
2022-12-29T13:10:26.235Z,1.30
2022-12-29T13:13:17.188Z,1.40
2022-12-29T13:16:12.373Z,3.65
2022-12-29T13:18:59.255Z,5.32
2022-12-29T13:21:57.354Z,10.57
2022-12-29T13:24:53.089Z,7.93
2022-12-29T13:27:37.346Z,1.63
2022-12-29T13:30:10.912Z,3.25
2022-12-29T13:33:05.918Z,2.92
2022-12-29T13:36:15.466Z,1.80
2022-12-29T13:38:52.809Z,2.40
2022-12-29T13:41:37.319Z,2.67
2022-12-29T13:44:06.173Z,3.10
2022-12-29T13:46:39.653Z,2.03
2022-12-29T13:49:12.778Z,2.00
2022-12-29T13:51:53.647Z,1.88
2022-12-29T13:54:41.222Z,1.50
2022-12-29T13:57:14.885Z,1.50
2022-12-29T14:00:01.651Z,1.50
2022-12-29T14:02:39.094Z,1.42
2022-12-29T14:05:33.094Z,1.58
2022-12-29T14:08:15.085Z,1.48
2022-12-29T14:10:52.843Z,1.45
2022-12-29T14:13:26.357Z,1.15
2022-12-29T14:16:02.712Z,1.50
2022-12-29T14:18:32.845Z,1.55
2022-12-29T14:23:35.284Z,1.30
2022-12-29T14:26:13.162Z,1.60
2022-12-29T14:28:48.427Z,1.88
2022-12-29T14:31:15.000Z,2.05
2022-12-29T14:34:02.367Z,1.27
2022-12-29T14:36:54.912Z,1.67
2022-12-29T14:39:37.839Z,1.60
2022-12-29T14:42:06.452Z,1.95
2022-12-29T14:44:33.929Z,1.50
2022-12-29T14:47:07.751Z,1.55
2022-12-29T14:49:43.674Z,2.63
2022-12-29T14:52:23.724Z,1.35
2022-12-29T14:57:28.227Z,2.63
2022-12-29T15:00:01.900Z,2.20
2022-12-29T15:02:35.513Z,4.68
2022-12-29T15:05:04.416Z,4.30
2022-12-29T15:07:32.315Z,2.47
2022-12-29T15:10:13.210Z,2.13
2022-12-29T15:12:44.617Z,1.60
2022-12-29T15:15:38.862Z,1.80
2022-12-29T15:18:34.741Z,2.00
2022-12-29T15:21:05.709Z,5.40
2022-12-29T15:23:34.851Z,5.50
2022-12-29T15:26:08.732Z,6.90
2022-12-29T15:28:46.821Z,6.78
2022-12-29T15:31:26.435Z,9.35
2022-12-29T15:34:10.943Z,7.72
2022-12-29T15:36:39.603Z,7.35
2022-12-29T15:39:20.848Z,10.20
2022-12-29T15:42:04.821Z,9.30
2022-12-29T15:44:38.432Z,8.27
2022-12-29T15:47:15.679Z,9.60
2022-12-29T15:49:44.995Z,11.02
2022-12-29T15:52:12.053Z,11.25
2022-12-29T15:54:38.953Z,14.77
2022-12-29T15:57:39.203Z,14.30
2022-12-29T16:02:49.904Z,16.40
2022-12-29T16:05:18.868Z,15.77
2022-12-29T16:08:00.270Z,17.00
2022-12-29T16:10:34.568Z,18.15
2022-12-29T16:13:26.080Z,20.10
2022-12-29T16:15:57.736Z,19.73
2022-12-29T16:18:36.520Z,20.02
2022-12-29T16:21:34.171Z,17.63
2022-12-29T16:24:14.653Z,18.27
2022-12-29T16:32:27.670Z,18.13
2022-12-29T16:35:19.510Z,15.35
2022-12-29T16:37:47.031Z,15.48
2022-12-29T16:40:20.622Z,15.07
2022-12-29T16:42:51.908Z,15.20
2022-12-29T16:49:23.233Z,13.27
2022-12-29T16:51:51.447Z,13.88
2022-12-29T16:54:51.419Z,16.23
2022-12-29T16:58:10.788Z,17.80
2022-12-29T17:04:24.882Z,16.92
2022-12-29T17:10:53.055Z,17.75
2022-12-29T17:13:21.031Z,19.10
2022-12-29T17:15:53.896Z,17.92
2022-12-29T17:18:20.433Z,18.42
2022-12-29T17:24:36.616Z,25.88
2022-12-29T17:29:36.814Z,31.00
2022-12-29T17:35:44.211Z,30.70
2022-12-29T17:40:48.419Z,25.70
2022-12-29T17:49:40.425Z,11.98
2022-12-29T17:52:06.951Z,13.65
2022-12-29T17:58:26.839Z,19.70
2022-12-29T18:00:57.366Z,19.02
2022-12-29T18:07:11.305Z,24.05
2022-12-29T18:09:37.816Z,19.30
2022-12-29T18:12:04.734Z,14.70
2022-12-29T18:14:31.280Z,12.15
2022-12-29T18:26:43.489Z,10.20
2022-12-29T18:29:10.001Z,13.75
2022-12-29T18:36:39.222Z,13.55
2022-12-29T18:41:32.307Z,12.00
2022-12-29T18:46:26.244Z,13.63
2022-12-29T18:58:41.036Z,13.50
2022-12-29T20:07:47.196Z,9.60
2022-12-29T20:10:13.748Z,16.10
